South Yarmouth, Massachusetts
Current Conditions -  °F | °C
As of 9:56 AM on Friday 24 Oct 2014 (Local Time) from KHYA Reporting Station
Overcast Overcast  
Wind Chill: 52°   Ceiling: 800
Heat Index: 52°   Visibility: 10mi
Dew Point: 49°   Wind: 17mph
Humidity: 89%   Direction: 350°N
Pressure: 29.65"   Gusts: 24mph
Location:  41.67°N, 70.19°W
Report Text: KHYA 241356Z 35015G21KT 10SM OVC008 11/09 A2965 RMK AO2 PK WND 35026/1300 RAE34 SLP039 P0000 T01110094
Loading
Personal Weather Stations






























Interactive Weather Map
Tropical Storm Tracking
New forecast layout! Learn more

10-Day Weather Forecast

Advertisements
Track Severe Weather on mobile